createdAt,value
2023-04-21T00:03:27.681Z,100.00
2023-04-21T00:08:29.397Z,100.00
2023-04-21T00:13:30.969Z,100.00
2023-04-21T00:18:33.245Z,100.00
2023-04-21T00:23:35.494Z,100.00
2023-04-21T00:28:37.029Z,100.00
2023-04-21T00:33:39.095Z,100.00
2023-04-21T00:38:40.609Z,100.00
2023-04-21T00:44:06.289Z,100.00
2023-04-21T00:49:07.922Z,100.00
2023-04-21T00:54:12.473Z,100.00
2023-04-21T00:59:14.889Z,100.00
2023-04-21T01:04:16.468Z,100.00
2023-04-21T01:09:18.551Z,100.00
2023-04-21T01:14:20.290Z,100.00
2023-04-21T01:19:21.914Z,100.00
2023-04-21T01:24:24.470Z,100.00
2023-04-21T01:29:25.969Z,100.00
2023-04-21T01:34:28.761Z,100.00
2023-04-21T01:39:30.295Z,100.00
2023-04-21T01:44:31.905Z,100.00
2023-04-21T01:49:33.531Z,100.00
2023-04-21T01:54:35.524Z,100.00
2023-04-21T01:59:37.503Z,100.00
2023-04-21T02:04:39.197Z,100.00
2023-04-21T02:09:41.228Z,100.00
2023-04-21T02:14:42.838Z,100.00
2023-04-21T02:19:44.386Z,100.00
2023-04-21T02:24:45.925Z,100.00
2023-04-21T02:29:47.517Z,100.00
2023-04-21T02:34:49.005Z,100.00
2023-04-21T02:39:50.515Z,100.00
2023-04-21T02:44:52.078Z,100.00
2023-04-21T02:49:53.590Z,100.00
2023-04-21T02:54:55.108Z,100.00
2023-04-21T02:59:56.679Z,100.00
2023-04-21T03:04:58.210Z,100.00
2023-04-21T03:09:59.839Z,100.00
2023-04-21T03:15:02.523Z,100.00
2023-04-21T03:20:04.465Z,100.00
2023-04-21T03:25:06.487Z,100.00
2023-04-21T03:30:08.522Z,100.00
2023-04-21T03:35:10.162Z,100.00
2023-04-21T03:40:11.720Z,100.00
2023-04-21T03:45:13.313Z,100.00
2023-04-21T03:50:14.889Z,100.00
2023-04-21T03:55:16.569Z,100.00
2023-04-21T04:00:18.168Z,100.00
2023-04-21T04:05:20.060Z,100.00
2023-04-21T04:10:21.628Z,100.00
2023-04-21T04:15:23.167Z,100.00
2023-04-21T04:20:24.696Z,100.00
2023-04-21T04:25:27.367Z,100.00
2023-04-21T04:30:29.241Z,100.00
2023-04-21T04:35:30.798Z,100.00
2023-04-21T04:40:32.354Z,100.00
2023-04-21T04:45:33.848Z,100.00
2023-04-21T04:50:35.391Z,100.00
2023-04-21T04:55:36.905Z,100.00
2023-04-21T05:00:38.567Z,100.00
2023-04-21T05:05:40.136Z,100.00
2023-04-21T05:10:41.685Z,100.00
2023-04-21T05:15:43.189Z,100.00
2023-04-21T05:20:44.680Z,100.00
2023-04-21T05:25:46.728Z,100.00
2023-04-21T05:30:48.349Z,100.00
2023-04-21T05:35:49.853Z,100.00
2023-04-21T05:40:57.485Z,100.00
2023-04-21T05:46:00.233Z,100.00
2023-04-21T05:51:14.314Z,100.00
2023-04-21T05:56:15.889Z,100.00
2023-04-21T06:01:17.434Z,100.00
2023-04-21T06:06:18.955Z,100.00
2023-04-21T06:11:20.450Z,100.00
2023-04-21T06:16:22.025Z,100.00
2023-04-21T06:21:23.592Z,100.00
2023-04-21T06:26:25.125Z,100.00
2023-04-21T06:31:26.671Z,100.00
2023-04-21T06:36:28.337Z,100.00
2023-04-21T06:41:29.844Z,100.00
2023-04-21T06:46:31.449Z,100.00
2023-04-21T06:51:32.976Z,100.00
2023-04-21T06:56:34.558Z,100.00
2023-04-21T07:01:36.107Z,100.00
2023-04-21T07:06:37.704Z,100.00
2023-04-21T07:11:39.236Z,100.00
2023-04-21T07:16:40.768Z,100.00
2023-04-21T07:21:42.274Z,100.00
2023-04-21T07:26:43.875Z,100.00
2023-04-21T07:31:45.417Z,100.00
2023-04-21T07:36:47.111Z,100.00
2023-04-21T07:41:48.634Z,100.00
2023-04-21T07:46:50.193Z,100.00
2023-04-21T07:51:51.814Z,100.00
2023-04-21T07:56:53.463Z,100.00
2023-04-21T08:01:54.993Z,100.00
2023-04-21T08:06:56.795Z,100.00
2023-04-21T08:11:58.415Z,100.00
2023-04-21T08:17:01.160Z,100.00
2023-04-21T08:22:02.914Z,100.00
2023-04-21T08:27:04.498Z,100.00
2023-04-21T08:32:06.126Z,100.00
2023-04-21T08:37:07.730Z,100.00
2023-04-21T08:42:09.689Z,100.00
2023-04-21T08:47:12.348Z,100.00
2023-04-21T08:52:13.914Z,100.00
2023-04-21T08:57:16.309Z,100.00
2023-04-21T09:02:22.277Z,100.00
2023-04-21T09:07:35.534Z,100.00
2023-04-21T09:12:39.408Z,100.00
2023-04-21T09:17:41.042Z,100.00
2023-04-21T09:22:42.620Z,100.00
2023-04-21T09:27:44.211Z,100.00
2023-04-21T09:32:45.859Z,100.00
2023-04-21T09:37:47.534Z,100.00
2023-04-21T09:42:49.057Z,100.00
2023-04-21T09:47:50.974Z,100.00
2023-04-21T09:52:54.664Z,100.00
2023-04-21T09:57:59.330Z,100.00
2023-04-21T10:03:05.728Z,100.00
2023-04-21T10:08:08.196Z,100.00
2023-04-21T10:13:14.775Z,100.00
2023-04-21T10:18:17.539Z,100.00
2023-04-21T10:23:32.489Z,100.00
2023-04-21T10:28:58.868Z,100.00
2023-04-21T10:34:06.491Z,100.00
2023-04-21T10:39:08.086Z,99.42
2023-04-21T10:44:09.511Z,100.00
2023-04-21T10:49:22.845Z,97.35
2023-04-21T10:54:25.699Z,92.86
2023-04-21T10:59:27.445Z,82.15
2023-04-21T11:04:30.713Z,77.80
2023-04-21T11:09:32.784Z,80.25
2023-04-21T11:14:36.531Z,83.21
2023-04-21T11:19:38.685Z,83.58
2023-04-21T11:24:44.823Z,73.37
2023-04-21T11:29:46.726Z,71.95
2023-04-21T11:34:48.346Z,74.18
2023-04-21T11:39:49.868Z,73.21
2023-04-21T11:44:54.885Z,78.79
2023-04-21T11:49:58.425Z,74.46
2023-04-21T11:55:05.690Z,72.86
2023-04-21T12:00:10.380Z,76.19
2023-04-21T12:05:13.500Z,75.90
2023-04-21T12:10:19.190Z,72.30
2023-04-21T12:15:21.973Z,68.50
2023-04-21T12:20:25.776Z,72.20
2023-04-21T12:25:27.274Z,73.21
2023-04-21T12:30:28.803Z,78.51
2023-04-21T12:35:30.319Z,76.98
2023-04-21T12:40:32.627Z,73.29
2023-04-21T12:45:34.285Z,75.94
2023-04-21T12:50:35.811Z,73.44
2023-04-21T12:55:37.434Z,71.02
2023-04-21T13:00:38.941Z,73.77
2023-04-21T13:05:40.474Z,78.65
2023-04-21T13:10:42.000Z,81.66
2023-04-21T13:15:43.600Z,82.37
2023-04-21T13:20:45.128Z,81.37
2023-04-21T13:25:46.769Z,75.20
2023-04-21T13:30:49.284Z,75.63
2023-04-21T13:35:50.854Z,73.36
2023-04-21T13:40:52.380Z,75.10
2023-04-21T13:45:53.987Z,74.61
2023-04-21T13:50:55.566Z,73.87
2023-04-21T13:55:57.359Z,74.06
2023-04-21T14:00:58.886Z,74.32
2023-04-21T14:06:00.460Z,75.14
2023-04-21T14:11:03.431Z,75.35
2023-04-21T14:16:05.330Z,73.92
2023-04-21T14:21:07.935Z,71.75
2023-04-21T14:26:09.474Z,73.59
2023-04-21T14:31:11.065Z,70.37
2023-04-21T14:36:12.674Z,67.65
2023-04-21T14:41:14.252Z,68.91
2023-04-21T14:46:15.846Z,67.85
2023-04-21T14:51:17.406Z,66.46
2023-04-21T14:56:19.022Z,66.63
2023-04-21T15:01:21.682Z,64.75
2023-04-21T15:06:25.064Z,67.48
2023-04-21T15:11:26.674Z,66.15
2023-04-21T15:16:28.299Z,68.62
2023-04-21T15:21:30.259Z,69.72
2023-04-21T15:26:31.787Z,71.90
2023-04-21T15:31:33.650Z,70.85
2023-04-21T15:36:35.313Z,67.57
2023-04-21T15:41:36.858Z,68.29
2023-04-21T15:46:38.512Z,64.51
2023-04-21T15:51:40.870Z,61.49
2023-04-21T15:56:42.507Z,63.22
2023-04-21T16:01:44.214Z,64.45
2023-04-21T16:06:45.892Z,63.06
2023-04-21T16:11:48.373Z,68.50
2023-04-21T16:16:49.955Z,64.54
2023-04-21T16:21:51.675Z,63.07
2023-04-21T16:26:53.230Z,68.00
2023-04-21T16:31:54.902Z,70.62
2023-04-21T16:36:56.468Z,68.81
2023-04-21T16:41:57.990Z,68.27
2023-04-21T16:46:59.562Z,70.37
2023-04-21T16:52:01.122Z,71.74
2023-04-21T16:57:02.864Z,74.05
2023-04-21T17:02:04.539Z,75.29
2023-04-21T17:07:06.462Z,77.46
2023-04-21T17:12:08.010Z,76.98
2023-04-21T17:17:09.720Z,72.89
2023-04-21T17:22:11.342Z,75.80
2023-04-21T17:27:12.952Z,75.63
2023-04-21T17:32:14.597Z,75.96
2023-04-21T17:37:16.314Z,78.45
2023-04-21T17:42:17.873Z,81.62
2023-04-21T17:47:19.419Z,80.85
2023-04-21T17:52:21.021Z,82.80
2023-04-21T17:57:23.358Z,81.07
2023-04-21T18:02:24.967Z,83.65
2023-04-21T18:07:26.598Z,84.99
2023-04-21T18:12:28.115Z,85.48
2023-04-21T18:17:29.711Z,84.73
2023-04-21T18:22:32.325Z,85.83
2023-04-21T18:27:33.824Z,87.53
2023-04-21T18:32:36.252Z,87.94
2023-04-21T18:37:37.773Z,88.40
2023-04-21T18:42:39.335Z,88.53
2023-04-21T18:47:41.659Z,90.32
2023-04-21T18:52:43.301Z,98.58
2023-04-21T18:57:44.835Z,100.00
2023-04-21T19:02:46.772Z,100.00
2023-04-21T19:07:48.345Z,100.00
2023-04-21T19:12:49.897Z,100.00
2023-04-21T19:17:51.707Z,100.00
2023-04-21T19:22:53.277Z,100.00
2023-04-21T19:27:54.819Z,100.00
2023-04-21T19:32:57.257Z,100.00
2023-04-21T19:37:58.899Z,100.00
2023-04-21T19:43:00.424Z,100.00
2023-04-21T19:48:01.970Z,100.00
2023-04-21T19:53:03.833Z,100.00
2023-04-21T19:58:05.364Z,100.00
2023-04-21T20:03:07.168Z,100.00
2023-04-21T20:08:08.826Z,100.00
2023-04-21T20:13:12.082Z,100.00
2023-04-21T20:18:13.949Z,100.00
2023-04-21T20:23:15.736Z,100.00
2023-04-21T20:28:17.262Z,100.00
2023-04-21T20:33:18.787Z,100.00
2023-04-21T20:38:20.295Z,100.00
2023-04-21T20:43:21.883Z,100.00
2023-04-21T20:48:23.378Z,100.00
2023-04-21T20:53:25.040Z,100.00
2023-04-21T20:58:26.596Z,100.00
2023-04-21T21:03:28.379Z,100.00
2023-04-21T21:08:30.172Z,100.00
2023-04-21T21:13:32.108Z,100.00
2023-04-21T21:18:33.647Z,100.00
2023-04-21T21:23:35.208Z,100.00
2023-04-21T21:28:36.726Z,100.00
2023-04-21T21:33:38.248Z,100.00
2023-04-21T21:38:39.891Z,100.00
2023-04-21T21:43:41.416Z,100.00
2023-04-21T21:48:42.989Z,100.00
2023-04-21T21:53:44.569Z,100.00
2023-04-21T21:58:50.151Z,100.00
2023-04-21T22:03:51.847Z,100.00
2023-04-21T22:08:53.548Z,100.00
2023-04-21T22:13:55.051Z,100.00
2023-04-21T22:18:56.662Z,100.00
2023-04-21T22:23:58.200Z,100.00
2023-04-21T22:28:59.822Z,100.00
2023-04-21T22:34:01.479Z,100.00
2023-04-21T22:39:03.053Z,100.00
2023-04-21T22:44:04.728Z,100.00
2023-04-21T22:49:06.618Z,100.00
2023-04-21T22:54:08.134Z,100.00
2023-04-21T22:59:09.755Z,100.00
2023-04-21T23:04:11.398Z,100.00
2023-04-21T23:09:13.037Z,100.00
2023-04-21T23:14:14.679Z,100.00
2023-04-21T23:19:16.175Z,100.00
2023-04-21T23:24:17.723Z,100.00
2023-04-21T23:29:19.283Z,100.00
2023-04-21T23:34:20.802Z,100.00
2023-04-21T23:39:22.317Z,100.00
2023-04-21T23:44:24.060Z,100.00
2023-04-21T23:49:25.566Z,100.00
2023-04-21T23:54:27.144Z,100.00
2023-04-21T23:59:28.667Z,100.00
